Terminal Aerodrome Forecast
Issued by NWS Cleveland, OH

Home | Current Version | Previous Version | Graphics & Text | Print | Product List | Glossary Off
Versions: 1 2 3 4 5 6 7 8 9 10 11 12 13 14 15 16 17 18 19 20 21 22 23 24 25 26

000
FTUS41 KCLE 011432 AAA
TAFCLE
TAF AMD
KCLE 011432Z 0115/0218 30008KT P6SM SKC
     FM011800 29010G18KT P6SM SCT060
     FM012200 27010KT P6SM SCT060
     FM020000 22007KT P6SM SCT060
     FM021000 21006KT P6SM SCT100 BKN250=

USA.gov is the U.S. government's official web portal to all federal, state and local government web resources and services.